Time;durP1;ratioP1;P1;durP2;ratioP2;P2;SDS_P1;SDS_P2;PMS_P1;PMS_P2;Temp;Humidity;BMP_temperature;BMP_pressure;BME280_temperature;BME280_humidity;BME280_pressure;Samples;Min_cycle;Max_cycle;Signal;HPM_P1;HPM_P2
2023/06/27 00:00:49;;;;;;;5.90;0.98;;;;;;;18.41;83.75;100844.69;5149495;28;20022;-73
2023/06/27 00:03:19;;;;;;;5.47;0.80;;;;;;;18.43;83.86;100852.50;5144985;28;20062;-74
2023/06/27 00:05:51;;;;;;;5.13;1.20;;;;;;;18.41;84.86;100849.97;5146145;28;20817;-73
2023/06/27 00:08:21;;;;;;;3.60;0.93;;;;;;;18.32;84.89;100852.34;5146319;28;20113;-74
2023/06/27 00:10:52;;;;;;;3.20;1.10;;;;;;;18.22;85.33;100851.19;5147228;28;20125;-74
2023/06/27 00:13:22;;;;;;;2.53;0.90;;;;;;;18.05;86.19;100860.19;5146329;28;20031;-74
2023/06/27 00:15:53;;;;;;;3.63;1.10;;;;;;;18.17;86.27;100859.41;5145974;28;20038;-74
2023/06/27 00:18:23;;;;;;;4.80;1.20;;;;;;;17.97;86.89;100861.59;5129053;28;20718;-74
2023/06/27 00:20:53;;;;;;;6.85;1.30;;;;;;;18.17;86.31;100859.41;5146684;28;20499;-74
2023/06/27 00:23:24;;;;;;;6.85;1.17;;;;;;;18.16;85.97;100865.63;5146875;28;20033;-74
2023/06/27 00:25:54;;;;;;;7.70;1.33;;;;;;;18.17;85.88;100866.50;5149161;28;20022;-73
2023/06/27 00:28:24;;;;;;;5.32;1.13;;;;;;;17.84;86.41;100874.69;5147858;28;20058;-74
2023/06/27 00:30:55;;;;;;;5.73;1.60;;;;;;;17.84;87.34;100876.50;5146829;28;20069;-73
2023/06/27 00:33:25;;;;;;;6.03;2.05;;;;;;;17.72;87.88;100872.81;5120051;28;20277;-74
2023/06/27 00:35:56;;;;;;;3.42;1.33;;;;;;;17.63;87.96;100875.97;5131021;28;20031;-74
2023/06/27 00:38:26;;;;;;;7.78;1.60;;;;;;;17.66;87.82;100880.25;5129666;28;20039;-74
2023/06/27 00:40:56;;;;;;;3.65;1.13;;;;;;;17.66;87.24;100872.31;5148938;28;20040;-74
2023/06/27 00:43:30;;;;;;;7.30;2.00;;;;;;;17.66;87.54;100875.78;5147340;28;20026;-74
2023/06/27 00:46:03;;;;;;;5.85;1.23;;;;;;;17.68;87.60;100871.25;5146032;28;20026;-74
2023/06/27 00:48:34;;;;;;;8.35;2.00;;;;;;;17.51;87.58;100867.94;5145671;28;20555;-74
2023/06/27 00:51:07;;;;;;;2.42;0.93;;;;;;;17.54;88.15;100878.31;5144705;28;20030;-74
2023/06/27 00:53:38;;;;;;;5.63;1.10;;;;;;;17.54;88.33;100873.91;5146874;28;20058;-74
2023/06/27 00:56:17;;;;;;;6.03;1.17;;;;;;;17.50;87.70;100876.81;5146824;28;20472;-73
2023/06/27 00:58:48;;;;;;;4.43;1.27;;;;;;;17.28;89.70;100873.69;5146880;28;20492;-72
2023/06/27 01:01:19;;;;;;;4.53;1.13;;;;;;;17.26;89.58;100878.19;5126630;28;20050;-74
2023/06/27 01:03:49;;;;;;;7.40;1.52;;;;;;;17.32;90.02;100878.69;5147634;28;20571;-73
2023/06/27 01:06:49;;;;;;;5.03;1.25;;;;;;;17.43;88.77;100880.72;5146597;28;20027;-74
2023/06/27 01:09:33;;;;;;;6.65;1.48;;;;;;;17.35;89.98;100883.00;5145348;28;20027;-74
2023/06/27 01:12:09;;;;;;;6.53;1.25;;;;;;;17.20;90.06;100878.56;5145738;28;20063;-75
2023/06/27 01:14:43;;;;;;;7.63;1.35;;;;;;;17.16;89.89;100885.78;5149388;28;20418;-75
2023/06/27 01:17:15;;;;;;;4.93;1.40;;;;;;;17.15;90.22;100885.91;5127105;28;20031;-73
2023/06/27 01:19:47;;;;;;;7.78;1.48;;;;;;;17.24;90.28;100888.88;5149324;28;20084;-74
2023/06/27 01:22:29;;;;;;;4.68;1.30;;;;;;;17.03;90.45;100884.81;5129507;28;20473;-75
2023/06/27 01:25:00;;;;;;;6.97;1.50;;;;;;;17.09;90.82;100880.94;5128537;28;20029;-75
2023/06/27 01:27:31;;;;;;;5.47;1.50;;;;;;;17.01;91.54;100878.75;5145773;28;20122;-74
2023/06/27 01:30:01;;;;;;;6.10;1.42;;;;;;;17.00;91.20;100881.50;5145151;28;20112;-75
2023/06/27 01:32:48;;;;;;;8.10;2.35;;;;;;;17.07;91.21;100883.69;5148819;28;20042;-74
2023/06/27 01:35:31;;;;;;;4.00;1.35;;;;;;;16.97;91.74;100886.94;5140159;28;20441;-75
2023/06/27 01:38:20;;;;;;;4.00;1.20;;;;;;;17.02;92.59;100884.91;5146279;28;20383;-75
2023/06/27 01:40:53;;;;;;;4.00;1.15;;;;;;;16.81;93.26;100880.84;5142596;28;20034;-74
2023/06/27 01:43:28;;;;;;;6.88;1.55;;;;;;;16.85;93.29;100888.50;5147728;28;20069;-74
2023/06/27 01:45:58;;;;;;;5.38;1.70;;;;;;;16.70;94.17;100877.09;5128097;28;20042;-75
2023/06/27 01:48:29;;;;;;;7.60;1.75;;;;;;;16.79;93.39;100883.53;5145812;28;20061;-74
2023/06/27 01:50:59;;;;;;;6.70;1.50;;;;;;;16.75;94.55;100886.44;5149524;28;20084;-74
2023/06/27 01:53:29;;;;;;;5.43;1.40;;;;;;;16.84;93.12;100881.50;5148427;28;20041;-75
2023/06/27 01:56:00;;;;;;;6.00;1.80;;;;;;;16.65;94.78;100876.47;5128998;28;20026;-74
2023/06/27 01:58:31;;;;;;;5.28;1.45;;;;;;;16.56;94.73;100877.84;5129687;28;20097;-74
2023/06/27 02:01:03;;;;;;;7.60;1.38;;;;;;;16.70;93.63;100877.09;5128129;28;20057;-74
2023/06/27 02:03:33;;;;;;;7.60;1.80;;;;;;;16.79;93.11;100877.44;5148305;28;20109;-74
2023/06/27 02:06:04;;;;;;;8.60;1.50;;;;;;;16.58;94.03;100875.97;5145010;28;20101;-74
2023/06/27 02:08:34;;;;;;;5.88;1.55;;;;;;;16.63;92.89;100875.72;5129538;28;20475;-74
2023/06/27 02:11:04;;;;;;;7.63;1.45;;;;;;;16.59;93.99;100872.38;5143501;28;20491;-75
2023/06/27 02:13:37;;;;;;;6.65;1.30;;;;;;;16.55;94.89;100878.78;5147870;28;20503;-75
2023/06/27 02:16:07;;;;;;;5.63;1.52;;;;;;;16.68;94.08;100873.66;5124666;28;20038;-74
2023/06/27 02:18:38;;;;;;;3.45;1.33;;;;;;;16.38;94.97;100873.56;5144047;28;20034;-74
2023/06/27 02:21:08;;;;;;;18.55;3.53;;;;;;;16.19;95.75;100875.47;5126475;28;20026;-74
2023/06/27 02:23:38;;;;;;;5.50;1.10;;;;;;;16.45;94.62;100880.22;5147218;28;20133;-75
2023/06/27 02:26:09;;;;;;;5.35;1.55;;;;;;;16.33;95.91;100877.34;5145093;28;20030;-75
2023/06/27 02:28:39;;;;;;;5.10;1.25;;;;;;;16.29;95.91;100881.97;5146224;28;20157;-74
2023/06/27 02:31:09;;;;;;;7.65;1.45;;;;;;;16.29;96.38;100879.31;5146781;28;20031;-74
2023/06/27 02:33:40;;;;;;;7.38;1.55;;;;;;;16.24;96.53;100872.59;5146144;28;20018;-74
2023/06/27 02:36:10;;;;;;;5.60;1.70;;;;;;;16.30;97.50;100880.16;5127158;28;20057;-74
2023/06/27 02:38:40;;;;;;;6.50;1.60;;;;;;;16.38;97.83;100881.47;5128682;28;20026;-72
2023/06/27 02:41:10;;;;;;;5.90;1.52;;;;;;;16.21;98.61;100883.31;5127464;28;20511;-75
2023/06/27 02:43:41;;;;;;;5.18;1.70;;;;;;;16.05;100.00;100885.88;5147008;28;20037;-73
2023/06/27 02:46:11;;;;;;;5.78;1.50;;;;;;;16.01;100.00;100887.00;5142736;28;20597;-74
2023/06/27 02:48:42;;;;;;;7.25;1.63;;;;;;;16.03;100.00;100887.75;5145395;28;20034;-73
2023/06/27 02:51:12;;;;;;;6.85;1.75;;;;;;;16.00;100.00;100892.34;5144127;28;20026;-75
2023/06/27 02:53:42;;;;;;;3.47;1.40;;;;;;;15.87;100.00;100896.56;5145941;28;20041;-72
2023/06/27 02:56:13;;;;;;;8.50;1.80;;;;;;;15.89;100.00;100887.63;5127044;28;20038;-75
2023/06/27 02:58:43;;;;;;;6.00;1.60;;;;;;;16.00;100.00;100892.34;5129277;28;20124;-74
2023/06/27 03:01:14;;;;;;;6.05;1.73;;;;;;;16.00;100.00;100890.56;5139944;28;20038;-75
2023/06/27 03:03:45;;;;;;;5.97;1.30;;;;;;;15.97;100.00;100892.50;5146051;28;20027;-74
2023/06/27 03:06:16;;;;;;;8.57;2.55;;;;;;;16.00;100.00;100889.69;5143652;28;20227;-75
2023/06/27 03:08:46;;;;;;;5.18;1.23;;;;;;;15.97;100.00;100890.72;5146660;28;20133;-74
2023/06/27 03:11:16;;;;;;;4.63;1.50;;;;;;;15.91;100.00;100891.03;5146247;28;20416;-75
2023/06/27 03:13:46;;;;;;;9.05;1.60;;;;;;;15.79;100.00;100893.47;5146623;28;20371;-74
2023/06/27 03:16:17;;;;;;;5.43;1.85;;;;;;;15.99;100.00;100894.13;5146449;28;20041;-74
2023/06/27 03:18:47;;;;;;;7.05;1.50;;;;;;;15.96;99.90;100893.44;5150916;28;20050;-75
2023/06/27 03:21:19;;;;;;;8.75;1.58;;;;;;;15.75;100.00;100900.69;5131300;28;20105;-75
2023/06/27 03:23:49;;;;;;;4.38;1.63;;;;;;;15.98;100.00;100895.06;5145698;28;20057;-73
2023/06/27 03:26:23;;;;;;;7.20;1.45;;;;;;;15.97;97.75;100885.47;5129737;28;20065;-75
2023/06/27 03:28:54;;;;;;;5.90;1.20;;;;;;;16.17;97.30;100905.47;5149691;28;20026;-75
2023/06/27 03:31:25;;;;;;;6.00;1.30;;;;;;;16.08;95.13;100895.44;5133329;28;20527;-75
2023/06/27 03:33:59;;;;;;;5.30;1.20;;;;;;;16.11;95.12;100904.03;5149387;28;20050;-75
2023/06/27 03:36:33;;;;;;;6.22;1.90;;;;;;;16.12;94.51;100897.84;5147176;28;20039;-74
2023/06/27 03:39:04;;;;;;;6.57;1.50;;;;;;;15.97;96.37;100895.13;5149523;28;20030;-74
2023/06/27 03:41:34;;;;;;;4.38;1.58;;;;;;;15.80;95.79;100888.13;5147207;28;20019;-74
2023/06/27 03:44:05;;;;;;;5.97;1.20;;;;;;;16.09;93.72;100895.38;5131538;28;22772;-74
2023/06/27 03:46:35;;;;;;;2.30;1.13;;;;;;;15.98;94.58;100895.06;5133054;28;20139;-74
2023/06/27 03:49:05;;;;;;;6.20;1.33;;;;;;;16.24;93.41;100891.88;5147764;28;20088;-73
2023/06/27 03:51:39;;;;;;;6.18;1.23;;;;;;;16.15;95.20;100897.66;5128948;28;20408;-74
2023/06/27 03:54:10;;;;;;;4.28;1.30;;;;;;;16.18;91.75;100886.94;5144942;28;20051;-75
2023/06/27 03:56:40;;;;;;;6.50;1.30;;;;;;;16.19;93.20;100885.19;5150181;28;20455;-73
2023/06/27 03:59:10;;;;;;;6.72;1.33;;;;;;;16.06;91.56;100898.13;5146946;28;20040;-73
2023/06/27 04:01:41;;;;;;;6.47;1.17;;;;;;;16.20;91.23;100890.34;5146201;28;20044;-74
2023/06/27 04:04:12;;;;;;;4.45;1.25;;;;;;;16.01;93.12;100900.19;5145307;28;20113;-75
2023/06/27 04:06:42;;;;;;;2.65;1.10;;;;;;;16.23;90.93;100892.00;5151140;28;20077;-74
2023/06/27 04:09:12;;;;;;;4.22;1.00;;;;;;;16.35;90.34;100896.66;5149817;28;20031;-75
2023/06/27 04:11:43;;;;;;;3.50;1.33;;;;;;;16.41;90.51;100889.22;5158269;28;20237;-75
2023/06/27 04:14:17;;;;;;;5.05;1.30;;;;;;;16.30;89.37;100899.50;5150734;28;20026;-74
2023/06/27 04:16:47;;;;;;;3.78;1.05;;;;;;;16.29;90.32;100892.50;5151277;28;20037;-75
2023/06/27 04:19:17;;;;;;;2.83;0.90;;;;;;;16.49;89.44;100894.94;5158786;28;20022;-74
2023/06/27 04:21:47;;;;;;;6.47;0.90;;;;;;;16.43;88.25;100894.44;5135631;28;20022;-74
2023/06/27 04:24:18;;;;;;;3.67;0.90;;;;;;;16.52;88.19;100894.78;5147155;28;20115;-75
2023/06/27 04:26:48;;;;;;;6.05;0.90;;;;;;;16.60;87.92;100897.00;5136079;28;20030;-73
2023/06/27 04:29:18;;;;;;;3.80;0.90;;;;;;;16.88;86.71;100887.47;5150470;28;20481;-75
2023/06/27 04:31:49;;;;;;;3.03;1.00;;;;;;;16.79;87.07;100899.38;5148001;28;20049;-74
2023/06/27 04:34:19;;;;;;;8.00;1.17;;;;;;;16.50;87.51;100894.00;5114024;28;20130;-75
2023/06/27 04:36:51;;;;;;;5.80;0.98;;;;;;;16.90;85.69;100897.00;5128691;28;20361;-73
2023/06/27 04:39:21;;;;;;;2.58;0.82;;;;;;;16.96;85.73;100898.47;5136288;28;20209;-75
2023/06/27 04:41:51;;;;;;;2.03;1.05;;;;;;;17.32;84.24;100893.72;5150569;28;20052;-76
2023/06/27 04:44:22;;;;;;;2.63;0.80;;;;;;;17.26;83.51;100894.91;5151378;28;20555;-76
2023/06/27 04:46:53;;;;;;;2.58;0.70;;;;;;;18.13;80.52;100894.94;5137412;28;20348;-73
2023/06/27 04:49:23;;;;;;;6.80;1.27;;;;;;;20.12;72.97;100879.00;5139155;28;20491;-75
2023/06/27 04:51:53;;;;;;;2.55;0.60;;;;;;;21.52;67.65;100889.00;5146632;28;20033;-75
2023/06/27 04:54:24;;;;;;;2.28;0.60;;;;;;;22.37;64.65;100888.56;5147767;28;20705;-75
2023/06/27 04:56:54;;;;;;;3.10;0.98;;;;;;;22.94;62.93;100890.09;5152814;28;20511;-73
2023/06/27 04:59:25;;;;;;;3.77;0.70;;;;;;;23.41;63.15;100887.06;5149673;28;20026;-75
2023/06/27 05:01:55;;;;;;;4.00;0.90;;;;;;;24.58;59.00;100882.19;5118781;28;20278;-75
2023/06/27 05:04:25;;;;;;;3.90;1.07;;;;;;;25.06;59.84;100886.69;5141282;28;20033;-75
2023/06/27 05:06:56;;;;;;;2.47;0.90;;;;;;;24.62;57.87;100888.97;5122177;28;20282;-74
2023/06/27 05:09:26;;;;;;;6.40;0.87;;;;;;;25.18;58.35;100891.78;5141793;28;20340;-75
2023/06/27 05:11:56;;;;;;;3.92;0.80;;;;;;;25.93;56.14;100884.75;5141415;28;20293;-75
2023/06/27 05:14:27;;;;;;;2.40;0.80;;;;;;;26.19;56.67;100885.78;5133780;28;20030;-75
2023/06/27 05:16:58;;;;;;;3.17;1.08;;;;;;;25.01;58.58;100883.56;5133745;28;20037;-75
2023/06/27 05:19:29;;;;;;;3.63;0.90;;;;;;;25.94;56.45;100882.91;5150933;28;20031;-74
2023/06/27 05:21:59;;;;;;;3.13;0.90;;;;;;;26.46;56.07;100880.47;5145528;28;20030;-75
2023/06/27 05:24:29;;;;;;;3.42;1.10;;;;;;;27.18;55.18;100865.28;5154012;28;20077;-75
2023/06/27 05:26:59;;;;;;;3.47;0.70;;;;;;;26.84;55.16;100877.63;5149345;28;20073;-76
2023/06/27 05:29:30;;;;;;;3.97;0.80;;;;;;;26.53;55.52;100878.09;5132226;28;20345;-75
2023/06/27 05:32:00;;;;;;;2.70;0.88;;;;;;;25.65;56.81;100874.06;5143083;28;20752;-76
2023/06/27 05:34:30;;;;;;;3.50;0.90;;;;;;;24.70;59.62;100881.94;5150146;28;20195;-75
2023/06/27 05:37:00;;;;;;;3.13;0.80;;;;;;;25.88;58.38;100879.00;5144172;28;20396;-76
2023/06/27 05:39:32;;;;;;;2.70;0.77;;;;;;;25.43;58.73;100880.53;5141680;28;20278;-76
2023/06/27 05:42:03;;;;;;;3.83;0.90;;;;;;;26.13;56.76;100881.03;5144179;28;20340;-75
2023/06/27 05:44:33;;;;;;;3.47;0.70;;;;;;;25.28;58.90;100884.63;5149918;28;20038;-76
2023/06/27 05:47:05;;;;;;;4.83;1.00;;;;;;;25.10;59.70;100880.91;5145448;28;20026;-75
2023/06/27 05:49:35;;;;;;;2.30;0.80;;;;;;;24.87;59.65;100887.50;5133253;28;20273;-75
2023/06/27 05:52:05;;;;;;;3.03;0.80;;;;;;;22.94;63.83;100896.28;5145470;28;20229;-76
2023/06/27 05:54:36;;;;;;;3.05;1.05;;;;;;;23.33;64.79;100895.72;5132018;28;20048;-75
2023/06/27 05:57:06;;;;;;;2.37;0.70;;;;;;;22.75;66.21;100889.91;5134930;28;20030;-75
2023/06/27 05:59:37;;;;;;;3.55;1.17;;;;;;;22.57;65.72;100890.53;5154224;28;20372;-75
2023/06/27 06:02:07;;;;;;;4.88;1.00;;;;;;;22.96;66.60;100889.00;5129644;28;20126;-75
2023/06/27 06:04:37;;;;;;;3.50;0.90;;;;;;;22.29;66.95;100889.16;5137714;28;20455;-75
2023/06/27 06:07:07;;;;;;;1.83;0.83;;;;;;;22.00;67.11;100893.28;5132430;28;20380;-75
2023/06/27 06:09:38;;;;;;;4.80;1.20;;;;;;;21.79;69.35;100891.41;5151065;28;20595;-74
2023/06/27 06:12:08;;;;;;;2.60;0.75;;;;;;;22.22;69.02;100884.47;5144457;28;20030;-75
2023/06/27 06:14:39;;;;;;;6.68;1.30;;;;;;;22.22;66.92;100881.81;5155453;28;20030;-75
2023/06/27 06:17:09;;;;;;;4.05;0.88;;;;;;;22.08;69.15;100882.03;5145283;28;20488;-76
2023/06/27 06:19:40;;;;;;;3.92;1.05;;;;;;;22.19;68.84;100879.34;5152389;28;20445;-75
2023/06/27 06:22:10;;;;;;;2.70;0.73;;;;;;;22.25;67.76;100887.72;5147885;28;20109;-75
2023/06/27 06:24:41;;;;;;;3.53;0.70;;;;;;;23.06;65.84;100881.94;5154851;28;20124;-75
2023/06/27 06:27:11;;;;;;;3.63;0.93;;;;;;;22.20;67.40;100881.03;5149820;28;20340;-73
2023/06/27 06:29:42;;;;;;;1.23;0.63;;;;;;;22.92;67.52;100876.91;5148197;28;20033;-76
2023/06/27 06:32:12;;;;;;;3.95;0.88;;;;;;;22.09;68.13;100889.03;5130088;28;20034;-75
2023/06/27 06:34:42;;;;;;;3.78;0.80;;;;;;;23.15;66.11;100888.38;5132506;28;20109;-75
2023/06/27 06:37:14;;;;;;;1.77;0.80;;;;;;;21.82;68.80;100885.84;5152485;28;20394;-74
2023/06/27 06:39:44;;;;;;;3.65;0.90;;;;;;;22.67;66.66;100886.16;5132828;28;20468;-75
2023/06/27 06:42:14;;;;;;;2.40;0.73;;;;;;;23.13;65.73;100877.84;5132870;28;20037;-75
2023/06/27 06:44:47;;;;;;;8.43;1.13;;;;;;;23.11;65.77;100882.47;5153299;28;20301;-75
2023/06/27 06:47:17;;;;;;;2.53;0.77;;;;;;;23.04;64.56;100886.56;5137029;28;20058;-75
2023/06/27 06:49:48;;;;;;;3.00;0.70;;;;;;;23.16;65.60;100880.25;5149860;28;20053;-74
2023/06/27 06:52:18;;;;;;;7.85;0.77;;;;;;;23.85;63.06;100885.03;5133607;28;20122;-75
2023/06/27 06:54:48;;;;;;;3.73;0.80;;;;;;;23.73;62.69;100885.22;5151478;28;20030;-73
2023/06/27 06:57:19;;;;;;;3.85;1.17;;;;;;;23.89;62.52;100875.78;5156767;23;20866;-72
2023/06/27 06:59:49;;;;;;;3.22;0.90;;;;;;;24.33;61.75;100875.47;5171791;28;20121;-71
2023/06/27 07:02:19;;;;;;;3.15;0.90;;;;;;;24.39;61.64;100869.56;5166872;28;20030;-72
2023/06/27 07:04:49;;;;;;;2.20;0.80;;;;;;;24.36;61.52;100875.19;5168319;28;20113;-69
2023/06/27 07:07:23;;;;;;;4.70;0.90;;;;;;;24.16;62.77;100869.88;5148927;28;20041;-72
2023/06/27 07:09:53;;;;;;;3.85;0.77;;;;;;;24.31;62.81;100861.41;5169293;28;20022;-71
2023/06/27 07:12:23;;;;;;;4.63;0.90;;;;;;;25.15;61.17;100856.44;5151630;28;20038;-71
2023/06/27 07:14:53;;;;;;;5.17;0.90;;;;;;;24.69;60.48;100861.53;5168882;28;20296;-72
2023/06/27 07:17:24;;;;;;;3.57;0.80;;;;;;;25.51;59.43;100853.91;5165170;28;20718;-70
2023/06/27 07:19:54;;;;;;;4.10;1.13;;;;;;;25.08;59.34;100863.28;5168034;28;20765;-71
2023/06/27 07:22:24;;;;;;;4.00;1.10;;;;;;;25.56;60.08;100858.84;5161237;28;20276;-71
2023/06/27 07:24:55;;;;;;;3.28;0.88;;;;;;;25.94;58.44;100853.44;5160873;28;20393;-72
2023/06/27 07:27:25;;;;;;;6.80;1.17;;;;;;;24.37;60.43;100860.00;5159523;28;20045;-72
2023/06/27 07:29:55;;;;;;;3.45;0.80;;;;;;;24.94;59.84;100850.34;5151213;28;20049;-72
2023/06/27 07:32:26;;;;;;;3.07;0.70;;;;;;;25.40;59.94;100854.06;5164777;28;20034;-71
2023/06/27 07:34:56;;;;;;;3.50;0.60;;;;;;;25.89;59.77;100851.22;5169560;28;20702;-72
2023/06/27 07:37:26;;;;;;;3.03;0.80;;;;;;;26.65;57.68;100850.09;5167990;28;20285;-71
2023/06/27 07:39:57;;;;;;;3.42;0.90;;;;;;;26.74;57.14;100850.03;5169035;28;20576;-72
2023/06/27 07:42:28;;;;;;;4.00;0.90;;;;;;;26.31;57.36;100841.75;5164611;28;20121;-72
2023/06/27 07:44:58;;;;;;;2.10;0.70;;;;;;;25.86;57.49;100842.59;5167932;28;20206;-72
2023/06/27 07:47:28;;;;;;;8.53;1.10;;;;;;;26.34;57.28;100837.94;5170340;28;20284;-72
2023/06/27 07:49:59;;;;;;;2.27;0.70;;;;;;;25.10;58.94;100846.13;5169885;28;20309;-73
2023/06/27 07:52:30;;;;;;;2.30;0.70;;;;;;;26.25;58.08;100833.44;5166304;28;20273;-71
2023/06/27 07:55:00;;;;;;;4.05;0.90;;;;;;;24.78;60.53;100834.81;5170955;28;20300;-71
2023/06/27 07:57:30;;;;;;;2.70;0.75;;;;;;;23.33;62.34;100852.19;5164630;28;20395;-71
2023/06/27 08:00:01;;;;;;;3.10;0.70;;;;;;;23.52;64.57;100839.00;5167654;28;20026;-72
2023/06/27 08:02:31;;;;;;;2.85;1.02;;;;;;;22.74;65.32;100845.56;5165008;28;20920;-72
2023/06/27 08:05:02;;;;;;;3.30;1.00;;;;;;;23.23;64.25;100843.25;5171082;28;20029;-72
2023/06/27 08:07:32;;;;;;;3.08;1.25;;;;;;;24.93;60.95;100832.59;5169076;28;20356;-73
2023/06/27 08:10:04;;;;;;;4.10;0.90;;;;;;;25.41;60.08;100833.47;5169978;28;20021;-72
2023/06/27 08:12:34;;;;;;;2.05;0.82;;;;;;;26.42;57.61;100821.94;5149167;28;20026;-72
2023/06/27 08:15:05;;;;;;;2.13;0.70;;;;;;;26.47;58.01;100820.50;5173624;28;20464;-72
2023/06/27 08:17:35;;;;;;;2.67;1.02;;;;;;;25.23;57.97;100821.78;5162523;28;20031;-71
2023/06/27 08:20:07;;;;;;;4.90;0.88;;;;;;;25.53;58.97;100824.31;5164644;28;20022;-71
2023/06/27 08:22:37;;;;;;;3.70;0.70;;;;;;;26.72;56.50;100813.59;5150440;28;20192;-71
2023/06/27 08:25:08;;;;;;;5.70;0.70;;;;;;;26.69;55.30;100817.41;5168289;28;20037;-72
2023/06/27 08:27:38;;;;;;;1.70;0.70;;;;;;;26.55;55.73;100828.66;5153102;28;20568;-70
2023/06/27 08:30:09;;;;;;;2.50;1.00;;;;;;;25.70;57.98;100824.41;5171404;28;20304;-72
2023/06/27 08:32:39;;;;;;;3.58;0.73;;;;;;;24.46;60.04;100824.44;5168695;28;20038;-72
2023/06/27 08:35:09;;;;;;;5.47;1.03;;;;;;;23.50;62.38;100825.75;5168224;28;20031;-71
2023/06/27 08:37:40;;;;;;;2.00;0.80;;;;;;;24.21;62.55;100816.91;5167610;28;20647;-71
2023/06/27 08:40:14;;;;;;;1.83;0.60;;;;;;;26.23;58.49;100813.97;5160852;28;20033;-71
2023/06/27 08:42:45;;;;;;;3.58;0.90;;;;;;;24.98;58.41;100811.63;5162377;28;20033;-72
2023/06/27 08:45:15;;;;;;;5.55;0.80;;;;;;;26.34;56.11;100803.06;5149897;28;20105;-71
2023/06/27 08:47:48;;;;;;;2.45;0.65;;;;;;;25.16;57.06;100812.63;5171093;28;20061;-72
2023/06/27 08:50:21;;;;;;;3.80;0.60;;;;;;;23.57;58.50;100805.56;5171783;28;20477;-72
2023/06/27 08:52:57;;;;;;;1.45;0.55;;;;;;;23.16;59.54;100810.06;5169443;28;20487;-72
2023/06/27 08:55:31;;;;;;;4.70;0.82;;;;;;;22.59;61.25;100812.16;5167724;28;20476;-72
2023/06/27 08:58:04;;;;;;;3.10;0.70;;;;;;;24.21;60.45;100806.22;5168496;28;20033;-72
2023/06/27 09:00:35;;;;;;;2.97;0.85;;;;;;;24.33;57.83;100810.47;5166244;28;20131;-71
2023/06/27 09:03:06;;;;;;;4.47;0.98;;;;;;;23.33;60.08;100823.66;5170759;28;20030;-71
2023/06/27 09:05:37;;;;;;;5.50;0.80;;;;;;;23.51;58.72;100822.13;5171140;28;20014;-72
2023/06/27 09:08:08;;;;;;;5.07;0.82;;;;;;;22.76;61.49;100812.47;5167126;28;20034;-71
2023/06/27 09:10:42;;;;;;;2.33;0.68;;;;;;;23.63;60.71;100815.75;5165630;28;20041;-69
2023/06/27 09:13:13;;;;;;;2.38;0.77;;;;;;;25.51;57.71;100799.53;5166754;28;20174;-72
2023/06/27 09:15:43;;;;;;;4.60;0.98;;;;;;;26.52;55.61;100807.50;5166708;28;20064;-71
2023/06/27 09:18:14;;;;;;;3.67;0.98;;;;;;;26.82;54.13;100808.03;5163606;28;20311;-71
2023/06/27 09:20:44;;;;;;;10.73;1.50;;;;;;;26.58;54.94;100795.34;5167780;28;20034;-71
2023/06/27 09:23:15;;;;;;;2.88;0.80;;;;;;;27.07;53.92;100801.88;5171099;28;20030;-72
2023/06/27 09:26:04;;;;;;;2.33;0.70;;;;;;;27.69;54.18;100803.59;5170844;28;20025;-71
2023/06/27 09:28:51;;;;;;;4.53;1.10;;;;;;;26.43;54.14;100796.81;5165440;28;20501;-72
2023/06/27 09:31:22;;;;;;;5.00;0.75;;;;;;;25.74;55.88;100808.91;5164730;28;20037;-71
2023/06/27 09:34:07;;;;;;;15.82;1.38;;;;;;;27.59;53.16;100806.38;5169660;28;20033;-72
2023/06/27 09:36:39;;;;;;;4.40;0.65;;;;;;;27.08;53.72;100800.88;5149657;28;20411;-72
2023/06/27 09:39:10;;;;;;;4.88;0.90;;;;;;;28.60;51.46;100799.22;5161548;28;20037;-71
2023/06/27 09:41:41;;;;;;;2.70;0.80;;;;;;;28.11;51.30;100800.00;5148845;28;20427;-71
2023/06/27 09:44:19;;;;;;;2.83;0.75;;;;;;;27.78;51.59;100800.00;5160396;28;20030;-72
2023/06/27 09:46:54;;;;;;;2.50;0.63;;;;;;;24.66;57.14;100808.34;5158725;28;20044;-70
2023/06/27 09:49:30;;;;;;;3.17;0.73;;;;;;;23.74;59.24;100818.31;5158130;28;20163;-70
2023/06/27 09:52:04;;;;;;;3.03;0.85;;;;;;;25.67;56.70;100797.09;5144867;28;20027;-71
2023/06/27 09:54:42;;;;;;;4.60;0.65;;;;;;;26.20;54.03;100796.34;5164334;28;20034;-71
2023/06/27 09:57:16;;;;;;;2.03;0.68;;;;;;;27.66;52.65;100795.84;5165621;28;20033;-71
2023/06/27 09:59:46;;;;;;;1.88;0.75;;;;;;;26.89;52.85;100801.03;5162966;28;20037;-72
2023/06/27 10:02:16;;;;;;;2.57;0.57;;;;;;;25.76;53.82;100810.44;5160653;28;20042;-71
2023/06/27 10:04:47;;;;;;;4.10;0.73;;;;;;;26.20;54.33;100806.25;5163076;28;20356;-71
2023/06/27 10:07:18;;;;;;;2.43;0.80;;;;;;;26.65;53.49;100801.81;5163572;28;20029;-71
2023/06/27 10:09:50;;;;;;;1.13;0.45;;;;;;;27.14;52.89;100796.78;5164906;28;20276;-71
2023/06/27 10:12:21;;;;;;;2.10;0.70;;;;;;;27.84;52.30;100789.47;5163338;28;20084;-72
2023/06/27 10:14:52;;;;;;;2.35;0.60;;;;;;;26.94;53.81;100793.38;5168057;28;20034;-71
2023/06/27 10:17:23;;;;;;;3.17;0.68;;;;;;;26.57;53.21;100793.66;5165734;28;20085;-72
2023/06/27 10:19:54;;;;;;;3.63;0.60;;;;;;;26.02;55.25;100787.41;5165048;28;20079;-70
2023/06/27 10:22:29;;;;;;;5.75;0.65;;;;;;;26.29;54.16;100784.75;5165213;28;20041;-70
2023/06/27 10:25:03;;;;;;;3.90;0.85;;;;;;;25.93;53.93;100779.41;5169269;28;20068;-71
2023/06/27 10:27:35;;;;;;;2.95;0.70;;;;;;;25.73;53.71;100780.44;5165898;28;20282;-71
2023/06/27 10:30:17;;;;;;;2.22;0.68;;;;;;;26.15;55.37;100785.22;5159314;28;20033;-72
2023/06/27 10:32:49;;;;;;;1.52;0.60;;;;;;;25.92;54.32;100786.63;5165381;28;20037;-68
2023/06/27 10:35:26;;;;;;;1.92;0.40;;;;;;;25.86;53.05;100771.09;5167372;28;20085;-71
2023/06/27 10:38:11;;;;;;;5.63;0.80;;;;;;;25.20;54.35;100787.28;5147240;28;20053;-71
2023/06/27 10:40:57;;;;;;;3.35;0.77;;;;;;;24.45;57.02;100783.53;5164475;28;20212;-70
2023/06/27 10:43:38;;;;;;;3.15;0.80;;;;;;;24.85;56.94;100778.97;5163713;28;20030;-71
2023/06/27 10:46:10;;;;;;;2.42;0.60;;;;;;;24.89;55.59;100783.03;5165214;28;20087;-70
2023/06/27 10:49:01;;;;;;;4.20;0.70;;;;;;;24.91;56.17;100765.88;5147565;28;20038;-71
2023/06/27 10:51:37;;;;;;;4.88;0.70;;;;;;;25.22;53.64;100764.78;5163465;28;20113;-71
2023/06/27 10:54:08;;;;;;;3.03;0.68;;;;;;;25.21;54.41;100768.44;5165869;28;20034;-71
2023/06/27 10:56:44;;;;;;;1.60;0.40;;;;;;;25.37;56.67;100755.31;5168838;28;20503;-71
2023/06/27 10:59:16;;;;;;;5.53;0.73;;;;;;;25.22;55.65;100761.22;5165233;28;20030;-71
2023/06/27 11:01:52;;;;;;;2.58;0.60;;;;;;;25.08;56.22;100759.81;5166380;28;20032;-71
2023/06/27 11:04:25;;;;;;;4.97;0.88;;;;;;;25.29;56.13;100751.66;5166358;28;20033;-71
2023/06/27 11:07:00;;;;;;;2.15;0.50;;;;;;;25.15;55.67;100739.50;5166422;28;20028;-69
2023/06/27 11:09:31;;;;;;;6.30;0.90;;;;;;;25.05;54.06;100732.50;5165135;28;20037;-70
2023/06/27 11:12:15;;;;;;;2.83;0.60;;;;;;;25.43;54.93;100743.16;5163521;28;20443;-71
2023/06/27 11:14:48;;;;;;;3.90;1.00;;;;;;;25.32;54.54;100738.81;5171671;28;20103;-70
2023/06/27 11:17:18;;;;;;;5.68;0.88;;;;;;;24.87;55.23;100735.06;5161699;28;20030;-71
2023/06/27 11:19:48;;;;;;;2.70;0.60;;;;;;;24.53;55.88;100732.91;5164180;28;20457;-70
2023/06/27 11:22:19;;;;;;;1.95;0.60;;;;;;;24.76;57.78;100739.66;5162594;28;20280;-71
2023/06/27 11:24:49;;;;;;;4.03;0.80;;;;;;;24.84;55.79;100737.16;5169875;28;20414;-71
2023/06/27 11:27:19;;;;;;;2.37;0.80;;;;;;;25.12;55.25;100723.75;5164493;28;20511;-71
2023/06/27 11:29:50;;;;;;;3.05;0.60;;;;;;;25.21;54.49;100730.09;5166233;28;20288;-68
2023/06/27 11:32:20;;;;;;;2.30;0.70;;;;;;;24.45;55.86;100727.38;5164763;28;20066;-71
2023/06/27 11:34:50;;;;;;;4.53;0.60;;;;;;;24.89;56.18;100729.53;5166912;28;20289;-70
2023/06/27 11:37:20;;;;;;;4.28;0.55;;;;;;;24.98;56.52;100723.34;5164491;28;20751;-71
2023/06/27 11:39:53;;;;;;;1.42;0.43;;;;;;;24.73;55.74;100719.41;5166765;28;20072;-71
2023/06/27 11:42:36;;;;;;;3.47;1.35;;;;;;;24.73;56.02;100718.56;5165785;28;20357;-71
2023/06/27 11:45:10;;;;;;;3.22;0.70;;;;;;;24.93;56.86;100720.25;5170315;28;20026;-71